createdAt,value
2018-12-15T00:00:22.907Z,61.85
2018-12-15T00:01:22.898Z,60.10
2018-12-15T00:02:22.888Z,62.68
2018-12-15T00:03:22.880Z,60.93
2018-12-15T00:04:22.891Z,61.35
2018-12-15T00:05:22.872Z,64.32
2018-12-15T00:06:22.840Z,60.46
2018-12-15T00:07:22.858Z,60.28
2018-12-15T00:08:22.818Z,62.16
2018-12-15T00:09:22.817Z,62.79
2018-12-15T00:10:22.828Z,62.96
2018-12-15T00:11:22.824Z,64.29
2018-12-15T00:12:22.775Z,61.97
2018-12-15T00:13:22.767Z,62.79
2018-12-15T00:14:22.759Z,57.17
2018-12-15T00:15:22.768Z,58.18
2018-12-15T00:16:22.737Z,58.45
2018-12-15T00:17:22.727Z,58.61
2018-12-15T00:18:22.707Z,62.26
2018-12-15T00:19:22.725Z,60.46
2018-12-15T00:20:22.713Z,60.17
2018-12-15T00:21:22.676Z,58.29
2018-12-15T00:22:22.670Z,59.08
2018-12-15T00:23:22.656Z,59.76
2018-12-15T00:24:22.645Z,60.70
2018-12-15T00:25:22.694Z,60.62
2018-12-15T00:26:22.625Z,63.80
2018-12-15T00:27:22.608Z,59.21
2018-12-15T00:28:22.600Z,62.21
2018-12-15T00:29:22.591Z,57.40
2018-12-15T00:30:22.595Z,58.89
2018-12-15T00:31:22.560Z,59.55
2018-12-15T00:32:22.576Z,63.07
2018-12-15T00:33:22.543Z,59.52
2018-12-15T00:34:22.533Z,59.44
2018-12-15T00:35:22.542Z,59.89
2018-12-15T00:36:22.514Z,60.72
2018-12-15T00:37:22.502Z,60.72
2018-12-15T00:38:22.486Z,61.98
2018-12-15T00:39:22.502Z,62.79
2018-12-15T00:40:22.490Z,60.49
2018-12-15T00:41:22.455Z,63.18
2018-12-15T00:42:22.472Z,63.48
2018-12-15T00:43:22.441Z,58.21
2018-12-15T00:44:22.421Z,59.05
2018-12-15T00:45:22.459Z,57.32
2018-12-15T00:46:22.427Z,58.22
2018-12-15T00:47:22.385Z,61.27
2018-12-15T00:48:22.380Z,61.06
2018-12-15T00:49:22.373Z,59.70
2018-12-15T00:50:22.363Z,60.64
2018-12-15T00:51:22.365Z,61.21
2018-12-15T00:52:22.336Z,59.62
2018-12-15T00:53:22.354Z,57.17
2018-12-15T00:54:22.310Z,58.48
2018-12-15T00:55:22.299Z,59.89
2018-12-15T00:56:22.312Z,60.52
2018-12-15T00:57:22.278Z,62.08
2018-12-15T00:58:22.271Z,63.39
2018-12-15T00:59:22.253Z,61.21
2018-12-15T01:00:22.273Z,61.60
2018-12-15T01:01:22.260Z,59.46
2018-12-15T01:02:22.249Z,58.47
2018-12-15T01:03:22.209Z,59.46
2018-12-15T01:04:22.203Z,58.81
2018-12-15T01:05:22.186Z,57.12
2018-12-15T01:06:22.221Z,58.71
2018-12-15T01:07:22.206Z,58.45
2018-12-15T01:08:22.157Z,59.28
2018-12-15T01:09:22.151Z,60.41
2018-12-15T01:10:22.137Z,59.47
2018-12-15T01:11:22.117Z,61.71
2018-12-15T01:12:22.197Z,58.26
2018-12-15T01:13:22.135Z,58.47
2018-12-15T01:14:22.089Z,60.06
2018-12-15T01:15:22.086Z,59.02
2018-12-15T01:16:22.065Z,57.95
2018-12-15T01:17:22.086Z,59.83
2018-12-15T01:18:22.041Z,58.11
2018-12-15T01:19:22.051Z,60.83
2018-12-15T01:20:22.030Z,58.03
2018-12-15T01:21:22.011Z,56.88
2018-12-15T01:22:22.024Z,58.62
2018-12-15T01:23:21.986Z,56.39
2018-12-15T01:24:21.975Z,55.56
2018-12-15T01:25:21.969Z,55.46
2018-12-15T01:26:21.951Z,56.18
2018-12-15T01:27:22.007Z,56.39
2018-12-15T01:28:21.928Z,56.18
2018-12-15T01:29:21.918Z,56.60
2018-12-15T01:30:21.908Z,56.39
2018-12-15T01:31:21.905Z,56.44
2018-12-15T01:32:21.901Z,56.31
2018-12-15T01:33:21.881Z,56.62
2018-12-15T01:34:21.869Z,56.31
2018-12-15T01:35:21.849Z,57.87
2018-12-15T01:36:21.873Z,56.21
2018-12-15T01:37:21.856Z,54.36
2018-12-15T01:38:21.843Z,55.22
2018-12-15T01:39:21.826Z,56.62
2018-12-15T01:40:21.807Z,58.18
2018-12-15T01:41:21.787Z,61.49
2018-12-15T01:42:21.775Z,56.68
2018-12-15T01:43:21.787Z,59.48
2018-12-15T01:44:21.801Z,58.42
2018-12-15T01:45:21.736Z,56.41
2018-12-15T01:46:21.790Z,56.96
2018-12-15T01:47:26.945Z,57.59
2018-12-15T01:48:22.729Z,57.95
2018-12-15T01:49:21.694Z,56.34
2018-12-15T01:50:21.737Z,56.93
2018-12-15T01:51:21.673Z,56.34
2018-12-15T01:52:21.659Z,58.21
2018-12-15T01:53:21.679Z,55.43
2018-12-15T01:54:21.636Z,55.79
2018-12-15T01:55:21.635Z,59.33
2018-12-15T01:56:21.652Z,58.13
2018-12-15T01:57:21.601Z,58.94
2018-12-15T01:58:21.622Z,57.64
2018-12-15T01:59:21.580Z,56.18
2018-12-15T02:00:21.571Z,56.60
2018-12-15T02:01:21.564Z,58.11
2018-12-15T02:02:21.546Z,58.08
2018-12-15T02:03:21.615Z,57.07
2018-12-15T02:04:21.531Z,56.31
2018-12-15T02:05:21.527Z,55.74
2018-12-15T02:06:21.511Z,60.00
2018-12-15T02:07:21.490Z,57.22
2018-12-15T02:08:21.507Z,60.00
2018-12-15T02:09:23.418Z,57.82
2018-12-15T02:10:21.461Z,58.39
2018-12-15T02:11:21.454Z,57.84
2018-12-15T02:12:21.436Z,58.88
2018-12-15T02:13:21.455Z,57.12
2018-12-15T02:14:21.444Z,55.87
2018-12-15T02:15:21.407Z,55.19
2018-12-15T02:16:21.429Z,58.91
2018-12-15T02:17:21.383Z,58.05
2018-12-15T02:18:21.374Z,56.73
2018-12-15T02:19:21.393Z,56.23
2018-12-15T02:20:21.355Z,58.21
2018-12-15T02:21:21.335Z,58.11
2018-12-15T02:22:21.324Z,59.43
2018-12-15T02:23:21.341Z,56.47
2018-12-15T02:24:22.888Z,57.59
2018-12-15T02:25:21.301Z,53.49
2018-12-15T02:26:21.283Z,57.45
2018-12-15T02:27:21.270Z,57.74
2018-12-15T02:28:21.286Z,56.29
2018-12-15T02:29:21.295Z,57.87
2018-12-15T02:30:21.269Z,58.39
2018-12-15T02:31:21.239Z,58.67
2018-12-15T02:32:21.213Z,56.21
2018-12-15T02:33:21.211Z,55.87
2018-12-15T02:34:21.210Z,55.38
2018-12-15T02:35:21.206Z,58.70
2018-12-15T02:36:21.174Z,56.34
2018-12-15T02:37:21.165Z,56.62
2018-12-15T02:38:21.183Z,53.87
2018-12-15T02:39:21.143Z,55.22
2018-12-15T02:40:21.156Z,58.34
2018-12-15T02:41:21.121Z,59.77
2018-12-15T02:42:21.105Z,60.37
2018-12-15T02:43:21.113Z,60.39
2018-12-15T02:44:21.083Z,56.31
2018-12-15T02:45:21.092Z,57.87
2018-12-15T02:46:21.063Z,58.81
2018-12-15T02:47:21.057Z,56.37
2018-12-15T02:48:21.047Z,57.95
2018-12-15T02:49:21.073Z,58.15
2018-12-15T02:50:21.043Z,58.36
2018-12-15T02:51:21.006Z,56.60
2018-12-15T02:52:20.995Z,56.68
2018-12-15T02:53:20.981Z,55.04
2018-12-15T02:54:20.973Z,56.41
2018-12-15T02:55:20.985Z,55.61
2018-12-15T02:56:20.977Z,55.38
2018-12-15T02:57:20.943Z,60.30
2018-12-15T02:58:20.953Z,59.49
2018-12-15T02:59:20.914Z,58.40
2018-12-15T03:00:20.903Z,60.43
2018-12-15T03:01:20.914Z,64.03
2018-12-15T03:02:20.881Z,63.00
2018-12-15T03:03:20.891Z,56.78
2018-12-15T03:04:20.870Z,60.11
2018-12-15T03:05:20.856Z,60.47
2018-12-15T03:06:20.856Z,56.73
2018-12-15T03:07:20.825Z,58.47
2018-12-15T03:08:20.814Z,55.77
2018-12-15T03:09:20.799Z,59.15
2018-12-15T03:10:20.823Z,59.39
2018-12-15T03:11:20.800Z,58.24
2018-12-15T03:12:20.769Z,59.23
2018-12-15T03:13:20.782Z,59.39
2018-12-15T03:14:20.751Z,60.57
2018-12-15T03:15:20.737Z,60.41
2018-12-15T03:16:20.753Z,61.25
2018-12-15T03:17:20.730Z,61.90
2018-12-15T03:18:20.708Z,62.32
2018-12-15T03:19:20.689Z,62.84
2018-12-15T03:20:20.681Z,63.92
2018-12-15T03:21:20.669Z,63.29
2018-12-15T03:22:20.685Z,63.18
2018-12-15T03:23:20.679Z,62.35
2018-12-15T03:24:20.633Z,62.98
2018-12-15T03:25:20.628Z,62.04
2018-12-15T03:26:20.617Z,63.29
2018-12-15T03:27:20.749Z,63.08
2018-12-15T03:28:20.594Z,63.18
2018-12-15T03:29:20.577Z,63.16
2018-12-15T03:30:20.643Z,64.17
2018-12-15T03:31:20.562Z,61.88
2018-12-15T03:32:20.569Z,62.50
2018-12-15T03:33:20.534Z,62.84
2018-12-15T03:34:20.529Z,63.08
2018-12-15T03:35:20.516Z,63.81
2018-12-15T03:36:20.525Z,63.81
2018-12-15T03:37:20.513Z,64.23
2018-12-15T03:38:20.480Z,63.68
2018-12-15T03:39:20.475Z,63.08
2018-12-15T03:40:20.453Z,63.50
2018-12-15T03:41:20.495Z,65.47
2018-12-15T03:42:20.453Z,62.31
2018-12-15T03:43:20.431Z,62.07
2018-12-15T03:44:20.416Z,59.81
2018-12-15T03:45:20.453Z,63.01
2018-12-15T03:46:20.399Z,60.72
2018-12-15T03:47:20.409Z,60.67
2018-12-15T03:48:20.399Z,61.95
2018-12-15T03:49:20.360Z,62.50
2018-12-15T03:50:20.349Z,63.57
2018-12-15T03:51:20.332Z,64.20
2018-12-15T03:52:20.346Z,66.44
2018-12-15T03:53:20.361Z,62.86
2018-12-15T03:54:23.362Z,64.61
2018-12-15T03:55:20.294Z,61.40
2018-12-15T03:56:20.279Z,59.55
2018-12-15T03:57:20.279Z,60.33
2018-12-15T03:58:20.281Z,61.95
2018-12-15T03:59:20.248Z,63.13
2018-12-15T04:00:20.287Z,64.20
2018-12-15T04:01:20.230Z,63.26
2018-12-15T04:02:20.211Z,63.18
2018-12-15T04:03:20.227Z,62.98
2018-12-15T04:04:20.190Z,64.03
2018-12-15T04:05:20.175Z,63.60
2018-12-15T04:06:20.167Z,64.73
2018-12-15T04:07:20.158Z,64.03
2018-12-15T04:08:20.208Z,64.03
2018-12-15T04:09:20.136Z,64.34
2018-12-15T04:10:20.130Z,64.03
2018-12-15T04:11:20.111Z,64.23
2018-12-15T04:12:20.102Z,64.76
2018-12-15T04:13:20.116Z,64.54
2018-12-15T04:14:20.110Z,64.23
2018-12-15T04:15:20.108Z,64.03
2018-12-15T04:16:20.053Z,64.86
2018-12-15T04:17:20.049Z,64.13
2018-12-15T04:18:20.073Z,64.13
2018-12-15T04:19:20.036Z,64.54
2018-12-15T04:20:20.010Z,64.44
2018-12-15T04:21:20.007Z,64.03
2018-12-15T04:22:19.998Z,64.23
2018-12-15T04:23:20.003Z,64.54
2018-12-15T04:24:19.997Z,63.95
2018-12-15T04:25:19.956Z,64.65
2018-12-15T04:26:19.986Z,64.34
2018-12-15T04:27:19.938Z,64.23
2018-12-15T04:28:19.919Z,64.13
2018-12-15T04:29:19.945Z,65.91
2018-12-15T04:30:19.909Z,63.92
2018-12-15T04:31:19.888Z,64.23
2018-12-15T04:32:19.883Z,64.86
2018-12-15T04:33:19.869Z,64.34
2018-12-15T04:34:19.929Z,64.23
2018-12-15T04:35:19.848Z,64.13
2018-12-15T04:36:19.841Z,63.95
2018-12-15T04:37:19.823Z,63.71
2018-12-15T04:38:19.810Z,64.76
2018-12-15T04:39:19.821Z,64.86
2018-12-15T04:40:19.802Z,65.00
2018-12-15T04:41:19.777Z,64.23
2018-12-15T04:42:19.764Z,64.65
2018-12-15T04:43:19.764Z,64.23
2018-12-15T04:44:19.773Z,63.76
2018-12-15T04:45:19.742Z,62.43
2018-12-15T04:46:19.722Z,63.86
2018-12-15T04:47:19.711Z,61.88
2018-12-15T04:48:19.699Z,63.68
2018-12-15T04:49:19.779Z,64.41
2018-12-15T04:50:19.698Z,62.19
2018-12-15T04:51:19.671Z,64.74
2018-12-15T04:52:19.656Z,61.92
2018-12-15T04:53:19.647Z,62.18
2018-12-15T04:54:19.635Z,60.22
2018-12-15T04:55:19.651Z,61.54
2018-12-15T04:56:19.606Z,62.76
2018-12-15T04:57:19.643Z,61.32
2018-12-15T04:58:19.587Z,61.25
2018-12-15T04:59:19.579Z,62.32
2018-12-15T05:00:19.590Z,62.43
2018-12-15T05:01:19.557Z,63.40
2018-12-15T05:02:19.542Z,62.98
2018-12-15T05:03:19.575Z,62.43
2018-12-15T05:04:19.523Z,62.01
2018-12-15T05:05:19.539Z,62.22
2018-12-15T05:06:19.498Z,63.31
2018-12-15T05:07:19.486Z,61.25
2018-12-15T05:08:19.479Z,61.25
2018-12-15T05:09:19.493Z,61.98
2018-12-15T05:10:19.476Z,61.77
2018-12-15T05:11:19.445Z,62.32
2018-12-15T05:12:19.438Z,63.23
2018-12-15T05:13:19.424Z,62.82
2018-12-15T05:14:19.417Z,63.62
2018-12-15T05:15:19.448Z,64.53
2018-12-15T05:16:19.391Z,63.22
2018-12-15T05:17:19.379Z,61.99
2018-12-15T05:18:19.366Z,58.32
2018-12-15T05:19:19.355Z,58.58
2018-12-15T05:20:19.371Z,61.74
2018-12-15T05:21:19.374Z,63.80
2018-12-15T05:22:19.330Z,63.68
2018-12-15T05:23:19.305Z,60.30
2018-12-15T05:24:19.309Z,57.85
2018-12-15T05:25:19.316Z,58.97
2018-12-15T05:26:19.308Z,61.43
2018-12-15T05:27:19.273Z,62.68
2018-12-15T05:28:19.294Z,61.15
2018-12-15T05:29:19.254Z,61.59
2018-12-15T05:30:19.237Z,62.43
2018-12-15T05:31:19.255Z,62.22
2018-12-15T05:32:19.213Z,62.22
2018-12-15T05:33:19.198Z,61.83
2018-12-15T05:34:19.187Z,63.18
2018-12-15T05:35:19.176Z,62.04
2018-12-15T05:36:19.218Z,63.06
2018-12-15T05:37:19.159Z,62.11
2018-12-15T05:38:19.155Z,64.17
2018-12-15T05:39:19.122Z,63.16
2018-12-15T05:40:19.143Z,62.53
2018-12-15T05:41:19.130Z,63.68
2018-12-15T05:42:19.122Z,62.40
2018-12-15T05:43:19.090Z,62.08
2018-12-15T05:44:19.111Z,61.90
2018-12-15T05:45:19.068Z,61.90
2018-12-15T05:46:19.054Z,62.82
2018-12-15T05:47:19.066Z,62.08
2018-12-15T05:48:24.961Z,61.17
2018-12-15T05:49:20.026Z,61.27
2018-12-15T05:50:19.044Z,61.38
2018-12-15T05:51:19.003Z,61.49
2018-12-15T05:52:19.018Z,61.59
2018-12-15T05:53:18.977Z,61.27
2018-12-15T05:54:18.970Z,61.17
2018-12-15T05:55:20.000Z,61.98
2018-12-15T05:56:18.945Z,61.04
2018-12-15T05:57:18.987Z,63.13
2018-12-15T05:58:18.921Z,61.32
2018-12-15T05:59:18.915Z,61.32
2018-12-15T06:00:18.900Z,62.08
2018-12-15T06:01:18.889Z,62.11
2018-12-15T06:02:18.900Z,63.26
2018-12-15T06:03:18.893Z,62.43
2018-12-15T06:04:18.855Z,62.43
2018-12-15T06:05:18.843Z,63.26
2018-12-15T06:06:18.842Z,63.16
2018-12-15T06:07:18.846Z,63.23
2018-12-15T06:08:18.810Z,62.82
2018-12-15T06:09:18.824Z,62.29
2018-12-15T06:10:18.797Z,63.76
2018-12-15T06:11:18.781Z,63.07
2018-12-15T06:12:18.800Z,61.40
2018-12-15T06:13:18.765Z,60.70
2018-12-15T06:14:18.742Z,62.08
2018-12-15T06:15:18.760Z,62.40
2018-12-15T06:16:18.767Z,62.50
2018-12-15T06:17:18.711Z,64.46
2018-12-15T06:18:18.726Z,62.41
2018-12-15T06:19:18.685Z,61.32
2018-12-15T06:20:18.678Z,63.28
2018-12-15T06:21:18.672Z,63.85
2018-12-15T06:22:18.694Z,59.16
2018-12-15T06:23:18.666Z,60.53
2018-12-15T06:24:18.652Z,61.08
2018-12-15T06:25:18.637Z,61.82
2018-12-15T06:26:18.611Z,64.71
2018-12-15T06:27:18.600Z,64.06
2018-12-15T06:28:18.653Z,60.82
2018-12-15T06:29:18.575Z,63.22
2018-12-15T06:30:18.572Z,62.07
2018-12-15T06:31:18.555Z,62.98
2018-12-15T06:32:18.547Z,61.91
2018-12-15T06:33:18.558Z,60.37
2018-12-15T06:34:18.565Z,58.70
2018-12-15T06:35:18.508Z,58.24
2018-12-15T06:36:18.501Z,57.82
2018-12-15T06:37:18.489Z,58.61
2018-12-15T06:38:18.501Z,59.52
2018-12-15T06:39:18.467Z,62.93
2018-12-15T06:40:18.487Z,61.13
2018-12-15T06:41:18.445Z,60.30
2018-12-15T06:42:18.439Z,57.64
2018-12-15T06:43:18.441Z,57.95
2018-12-15T06:44:18.427Z,61.00
2018-12-15T06:45:18.398Z,61.36
2018-12-15T06:46:18.387Z,62.48
2018-12-15T06:47:18.406Z,57.77
2018-12-15T06:48:18.405Z,58.18
2018-12-15T06:49:18.355Z,60.43
2018-12-15T06:50:18.340Z,62.02
2018-12-15T06:51:18.336Z,62.96
2018-12-15T06:52:18.322Z,63.62
2018-12-15T06:53:18.314Z,63.80
2018-12-15T06:54:18.358Z,61.85
2018-12-15T06:55:18.284Z,63.23
2018-12-15T06:56:18.277Z,64.39
2018-12-15T06:57:18.266Z,63.65
2018-12-15T06:58:18.259Z,63.37
2018-12-15T06:59:18.266Z,63.65
2018-12-15T07:00:18.270Z,64.31
2018-12-15T07:01:18.224Z,65.47
2018-12-15T07:02:18.207Z,62.96
2018-12-15T07:03:18.203Z,63.42
2018-12-15T07:04:18.215Z,64.39
2018-12-15T07:05:18.186Z,64.17
2018-12-15T07:06:18.209Z,64.70
2018-12-15T07:07:18.154Z,64.31
2018-12-15T07:08:18.147Z,64.23
2018-12-15T07:09:18.153Z,64.13
2018-12-15T07:10:18.127Z,66.58
2018-12-15T07:11:18.104Z,64.67
2018-12-15T07:12:18.101Z,63.62
2018-12-15T07:13:18.127Z,63.34
2018-12-15T07:14:18.098Z,64.17
2018-12-15T07:15:18.062Z,64.62
2018-12-15T07:16:18.055Z,64.31
2018-12-15T07:17:18.040Z,64.31
2018-12-15T07:18:18.040Z,65.14
2018-12-15T07:19:18.044Z,65.46
2018-12-15T07:20:18.055Z,65.01
2018-12-15T07:21:17.998Z,65.09
2018-12-15T07:22:17.988Z,62.99
2018-12-15T07:23:17.979Z,63.34
2018-12-15T07:24:17.986Z,63.79
2018-12-15T07:25:17.964Z,64.31
2018-12-15T07:26:17.939Z,64.17
2018-12-15T07:27:17.978Z,66.52
2018-12-15T07:28:17.946Z,62.96
2018-12-15T07:29:17.907Z,63.23
2018-12-15T07:30:17.917Z,64.59
2018-12-15T07:31:17.884Z,63.59
2018-12-15T07:32:17.881Z,62.26
2018-12-15T07:33:17.870Z,64.49
2018-12-15T07:34:17.854Z,63.76
2018-12-15T07:35:17.895Z,64.39
2018-12-15T07:36:17.839Z,63.76
2018-12-15T07:37:17.821Z,63.89
2018-12-15T07:38:17.814Z,64.20
2018-12-15T07:39:17.802Z,64.00
2018-12-15T07:40:17.811Z,66.37
2018-12-15T07:41:17.809Z,66.65
2018-12-15T07:42:17.770Z,63.35
2018-12-15T07:43:17.754Z,63.54
2018-12-15T07:44:17.740Z,62.28
2018-12-15T07:45:17.756Z,63.22
2018-12-15T07:46:17.724Z,63.64
2018-12-15T07:47:17.715Z,61.24
2018-12-15T07:48:17.697Z,62.34
2018-12-15T07:49:17.713Z,64.25
2018-12-15T07:50:17.707Z,64.77
2018-12-15T07:51:17.666Z,64.59
2018-12-15T07:52:17.660Z,64.36
2018-12-15T07:53:17.642Z,65.53
2018-12-15T07:54:17.661Z,65.09
2018-12-15T07:55:17.622Z,64.04
2018-12-15T07:56:17.687Z,63.83
2018-12-15T07:57:17.605Z,64.28
2018-12-15T07:58:17.599Z,64.59
2018-12-15T07:59:17.574Z,65.43
2018-12-15T08:00:17.572Z,65.40
2018-12-15T08:01:17.582Z,64.87
2018-12-15T08:02:17.557Z,65.47
2018-12-15T08:03:17.537Z,64.82
2018-12-15T08:04:17.520Z,62.73
2018-12-15T08:05:17.535Z,63.70
2018-12-15T08:06:17.526Z,64.14
2018-12-15T08:07:17.493Z,63.62
2018-12-15T08:08:17.483Z,63.86
2018-12-15T08:09:17.463Z,66.03
2018-12-15T08:10:17.455Z,64.53
2018-12-15T08:11:17.526Z,64.84
2018-12-15T08:12:17.436Z,64.12
2018-12-15T08:13:17.433Z,63.78
2018-12-15T08:14:17.417Z,63.28
2018-12-15T08:15:17.401Z,63.67
2018-12-15T08:16:17.389Z,64.50
2018-12-15T08:17:17.404Z,63.12
2018-12-15T08:18:17.389Z,63.03
2018-12-15T08:19:17.357Z,60.32
2018-12-15T08:20:17.345Z,61.81
2018-12-15T08:21:17.333Z,62.23
2018-12-15T08:22:17.347Z,62.26
2018-12-15T08:23:17.313Z,62.94
2018-12-15T08:24:17.317Z,65.59
2018-12-15T08:25:17.287Z,64.83
2018-12-15T08:26:17.292Z,61.76
2018-12-15T08:27:17.298Z,62.07
2018-12-15T08:28:17.254Z,62.48
2018-12-15T08:29:17.244Z,60.38
2018-12-15T08:30:17.233Z,61.76
2018-12-15T08:31:17.247Z,63.64
2018-12-15T08:32:17.233Z,63.04
2018-12-15T08:33:17.202Z,64.95
2018-12-15T08:34:17.193Z,64.84
2018-12-15T08:35:17.184Z,64.32
2018-12-15T08:36:17.162Z,65.78
2018-12-15T08:37:17.179Z,66.10
2018-12-15T08:38:17.140Z,66.59
2018-12-15T08:39:17.133Z,65.75
2018-12-15T08:40:17.155Z,66.85
2018-12-15T08:41:17.112Z,63.27
2018-12-15T08:42:17.117Z,64.45
2018-12-15T08:43:17.087Z,65.11
2018-12-15T08:44:17.082Z,64.04
2018-12-15T08:45:17.058Z,61.78
2018-12-15T08:46:17.057Z,63.03
2018-12-15T08:47:17.109Z,63.48
2018-12-15T08:48:17.035Z,62.93
2018-12-15T08:49:17.021Z,62.67
2018-12-15T08:50:17.029Z,63.78
2018-12-15T08:51:17.002Z,63.78
2018-12-15T08:52:16.991Z,65.00
2018-12-15T08:53:16.996Z,66.19
2018-12-15T08:54:17.010Z,65.35
2018-12-15T08:55:16.957Z,61.60
2018-12-15T08:56:16.945Z,62.67
2018-12-15T08:57:16.926Z,63.78
2018-12-15T08:58:16.939Z,64.50
2018-12-15T08:59:16.909Z,63.88
2018-12-15T09:00:16.895Z,66.07
2018-12-15T09:01:16.891Z,64.71
2018-12-15T09:02:16.909Z,63.88
2018-12-15T09:03:16.890Z,64.84
2018-12-15T09:04:16.848Z,64.64
2018-12-15T09:05:16.903Z,66.77
2018-12-15T09:06:16.836Z,62.88
2018-12-15T09:07:16.821Z,63.30
2018-12-15T09:08:16.864Z,63.01
2018-12-15T09:09:16.797Z,64.79
2018-12-15T09:10:16.785Z,63.01
2018-12-15T09:11:16.781Z,63.64
2018-12-15T09:12:16.767Z,66.04
2018-12-15T09:13:16.776Z,63.27
2018-12-15T09:14:16.742Z,62.36
2018-12-15T09:15:16.760Z,64.16
2018-12-15T09:16:16.720Z,65.34
2018-12-15T09:17:16.704Z,65.00
2018-12-15T09:18:16.722Z,64.34
2018-12-15T09:19:16.689Z,63.67
2018-12-15T09:20:16.674Z,64.84
2018-12-15T09:21:16.696Z,65.47
2018-12-15T09:22:16.663Z,64.69
2018-12-15T09:23:16.660Z,63.56
2018-12-15T09:24:16.634Z,65.03
2018-12-15T09:25:16.624Z,65.13
2018-12-15T09:26:16.603Z,66.49
2018-12-15T09:27:16.627Z,64.03
2018-12-15T09:28:16.610Z,64.13
2018-12-15T09:29:16.570Z,64.42
2018-12-15T09:30:16.564Z,63.42
2018-12-15T09:31:16.546Z,61.32
2018-12-15T09:32:16.538Z,64.03
2018-12-15T09:33:16.583Z,63.12
2018-12-15T09:34:16.514Z,63.95
2018-12-15T09:35:16.509Z,64.58
2018-12-15T09:36:16.500Z,66.22
2018-12-15T09:37:16.487Z,65.43
2018-12-15T09:38:16.505Z,61.54
2018-12-15T09:39:16.466Z,63.76
2018-12-15T09:40:16.494Z,62.15
2018-12-15T09:41:16.446Z,63.92
2018-12-15T09:42:16.478Z,64.70
2018-12-15T09:43:16.438Z,61.33
2018-12-15T09:44:16.406Z,61.00
2018-12-15T09:45:16.390Z,63.01
2018-12-15T09:46:16.432Z,65.28
2018-12-15T09:47:16.380Z,63.75
2018-12-15T09:48:16.394Z,63.85
2018-12-15T09:49:17.968Z,64.09
2018-12-15T09:50:16.345Z,64.32
2018-12-15T09:51:16.336Z,65.97
2018-12-15T09:52:16.315Z,63.78
2018-12-15T09:53:16.334Z,63.98
2018-12-15T09:54:16.304Z,64.71
2018-12-15T09:55:16.284Z,66.91
2018-12-15T09:56:16.301Z,64.71
2018-12-15T09:57:16.267Z,65.00
2018-12-15T09:58:16.289Z,66.07
2018-12-15T09:59:16.242Z,64.61
2018-12-15T10:00:16.228Z,65.52
2018-12-15T10:01:16.214Z,66.19
2018-12-15T10:02:16.234Z,62.93
2018-12-15T10:03:16.191Z,64.00
2018-12-15T10:04:16.251Z,64.49
2018-12-15T10:05:16.177Z,63.49
2018-12-15T10:06:16.162Z,61.78
2018-12-15T10:07:16.157Z,63.12
2018-12-15T10:08:16.138Z,64.71
2018-12-15T10:09:16.157Z,64.82
2018-12-15T10:10:16.119Z,65.47
2018-12-15T10:11:16.160Z,65.78
2018-12-15T10:12:16.092Z,65.47
2018-12-15T10:13:16.088Z,66.17
2018-12-15T10:14:16.098Z,66.88
2018-12-15T10:15:16.066Z,66.11
2018-12-15T10:16:16.048Z,63.61
2018-12-15T10:17:16.102Z,63.32
2018-12-15T10:18:16.074Z,64.82
2018-12-15T10:19:16.037Z,64.19
2018-12-15T10:20:16.013Z,64.69
2018-12-15T10:21:16.034Z,64.86
2018-12-15T10:22:15.981Z,64.94
2018-12-15T10:23:15.978Z,65.56
2018-12-15T10:24:15.986Z,64.59
2018-12-15T10:25:15.955Z,62.93
2018-12-15T10:26:15.973Z,63.06
2018-12-15T10:27:15.934Z,62.98
2018-12-15T10:28:15.920Z,64.03
2018-12-15T10:29:15.934Z,63.37
2018-12-15T10:30:15.904Z,63.40
2018-12-15T10:31:15.922Z,62.98
2018-12-15T10:32:15.879Z,64.07
2018-12-15T10:33:15.860Z,63.21
2018-12-15T10:34:15.875Z,61.76
2018-12-15T10:35:15.843Z,62.38
2018-12-15T10:36:15.831Z,62.93
2018-12-15T10:37:15.858Z,62.96
2018-12-15T10:38:15.813Z,64.00
2018-12-15T10:39:15.826Z,61.91
2018-12-15T10:40:15.784Z,63.58
2018-12-15T10:41:15.773Z,63.24
2018-12-15T10:42:16.227Z,63.55
2018-12-15T10:43:15.754Z,61.57
2018-12-15T10:44:15.772Z,62.57
2018-12-15T10:45:15.778Z,64.03
2018-12-15T10:46:15.715Z,64.31
2018-12-15T10:47:15.709Z,63.55
2018-12-15T10:48:15.700Z,61.68
2018-12-15T10:49:15.720Z,61.99
2018-12-15T10:50:15.681Z,63.17
2018-12-15T10:51:15.656Z,64.07
2018-12-15T10:52:15.650Z,62.90
2018-12-15T10:53:15.697Z,62.40
2018-12-15T10:54:15.628Z,60.26
2018-12-15T10:55:15.647Z,57.67
2018-12-15T10:56:15.606Z,58.37
2018-12-15T10:57:15.643Z,61.71
2018-12-15T10:58:15.589Z,63.61
2018-12-15T10:59:15.581Z,63.95
2018-12-15T11:00:15.584Z,64.86
2018-12-15T11:01:15.552Z,64.86
2018-12-15T11:02:15.537Z,64.52
2018-12-15T11:03:15.566Z,64.13
2018-12-15T11:04:15.522Z,65.04
2018-12-15T11:05:15.534Z,64.00
2018-12-15T11:06:15.495Z,62.02
2018-12-15T11:07:15.492Z,62.57
2018-12-15T11:08:15.476Z,63.61
2018-12-15T11:09:15.494Z,62.98
2018-12-15T11:10:15.474Z,62.26
2018-12-15T11:11:15.437Z,62.88
2018-12-15T11:12:15.427Z,63.71
2018-12-15T11:13:15.423Z,63.20
2018-12-15T11:14:15.404Z,62.75
2018-12-15T11:15:15.446Z,63.40
2018-12-15T11:16:15.383Z,64.11
2018-12-15T11:17:15.382Z,63.32
2018-12-15T11:18:15.371Z,62.90
2018-12-15T11:19:15.351Z,62.38
2018-12-15T11:20:15.368Z,60.63
2018-12-15T11:21:15.331Z,61.88
2018-12-15T11:22:15.320Z,61.83
2018-12-15T11:23:15.305Z,64.83
2018-12-15T11:24:15.299Z,62.15
2018-12-15T11:25:15.357Z,64.16
2018-12-15T11:26:15.276Z,64.03
2018-12-15T11:27:15.263Z,63.75
2018-12-15T11:28:15.258Z,64.23
2018-12-15T11:29:15.241Z,64.03
2018-12-15T11:30:15.248Z,65.67
2018-12-15T11:31:15.213Z,61.81
2018-12-15T11:32:15.241Z,63.20
2018-12-15T11:33:15.194Z,63.30
2018-12-15T11:34:15.180Z,63.71
2018-12-15T11:35:15.200Z,63.89
2018-12-15T11:36:15.164Z,64.04
2018-12-15T11:37:15.153Z,62.87
2018-12-15T11:38:15.139Z,61.76
2018-12-15T11:39:15.128Z,61.36
2018-12-15T11:40:15.169Z,63.55
2018-12-15T11:41:15.105Z,62.12
2018-12-15T11:42:15.095Z,61.73
2018-12-15T11:43:15.081Z,62.98
2018-12-15T11:44:15.069Z,63.20
2018-12-15T11:45:15.094Z,62.75
2018-12-15T11:46:15.051Z,62.75
2018-12-15T11:47:15.060Z,63.97
2018-12-15T11:48:15.031Z,62.09
2018-12-15T11:49:15.049Z,62.96
2018-12-15T11:50:15.008Z,63.48
2018-12-15T11:51:15.022Z,62.79
2018-12-15T11:52:14.990Z,62.24
2018-12-15T11:53:15.014Z,61.44
2018-12-15T11:54:14.971Z,61.99
2018-12-15T11:55:14.953Z,62.69
2018-12-15T11:56:14.967Z,62.93
2018-12-15T11:57:14.938Z,62.43
2018-12-15T11:58:14.922Z,61.02
2018-12-15T11:59:14.906Z,64.22
2018-12-15T12:00:14.933Z,60.06
2018-12-15T12:01:14.911Z,61.65
2018-12-15T12:02:14.881Z,61.78
2018-12-15T12:03:14.868Z,63.03
2018-12-15T12:04:14.854Z,62.02
2018-12-15T12:05:14.850Z,63.27
2018-12-15T12:06:14.851Z,63.30
2018-12-15T12:07:14.814Z,64.45
2018-12-15T12:08:14.852Z,64.13
2018-12-15T12:09:14.791Z,63.64
2018-12-15T12:10:14.793Z,63.75
2018-12-15T12:11:14.808Z,64.86
2018-12-15T12:12:14.765Z,63.71
2018-12-15T12:13:14.751Z,63.61
2018-12-15T12:14:14.741Z,64.23
2018-12-15T12:15:14.750Z,63.61
2018-12-15T12:16:14.750Z,63.54
2018-12-15T12:17:14.707Z,63.75
2018-12-15T12:18:14.704Z,64.26
2018-12-15T12:19:14.690Z,63.78
2018-12-15T12:20:14.678Z,66.25
2018-12-15T12:21:14.694Z,64.69
2018-12-15T12:22:14.700Z,66.46
2018-12-15T12:23:14.642Z,65.91
2018-12-15T12:24:14.664Z,64.13
2018-12-15T12:25:14.620Z,63.71
2018-12-15T12:26:14.631Z,63.75
2018-12-15T12:27:14.599Z,65.10
2018-12-15T12:28:14.586Z,65.73
2018-12-15T12:29:14.600Z,64.58
2018-12-15T12:30:14.566Z,64.37
2018-12-15T12:31:14.585Z,64.06
2018-12-15T12:32:14.545Z,65.62
2018-12-15T12:33:14.525Z,64.37
2018-12-15T12:34:14.520Z,65.38
2018-12-15T12:35:14.548Z,64.13
2018-12-15T12:36:14.525Z,65.35
2018-12-15T12:37:14.489Z,64.00
2018-12-15T12:38:14.482Z,63.51
2018-12-15T12:39:14.466Z,64.65
2018-12-15T12:40:14.456Z,64.76
2018-12-15T12:41:14.466Z,65.70
2018-12-15T12:42:14.439Z,64.13
2018-12-15T12:43:14.421Z,64.16
2018-12-15T12:44:14.484Z,65.48
2018-12-15T12:45:14.404Z,65.07
2018-12-15T12:46:14.390Z,65.59
2018-12-15T12:47:14.408Z,64.00
2018-12-15T12:48:14.376Z,64.03
2018-12-15T12:49:14.360Z,63.61
2018-12-15T12:50:14.343Z,63.56
2018-12-15T12:51:14.329Z,64.06
2018-12-15T12:52:14.346Z,65.31